sensor_id;sensor_type;location;lat;lon;timestamp;pressure;altitude;pressure_sealevel;temperature;humidity
9764;BME280;4921;43.214;27.936;2023-01-28T00:02:12;100239.66;;;6.81;100.00
9764;BME280;4921;43.214;27.936;2023-01-28T00:04:39;100240.47;;;6.81;100.00
9764;BME280;4921;43.214;27.936;2023-01-28T00:07:06;100239.94;;;6.89;100.00
9764;BME280;4921;43.214;27.936;2023-01-28T00:09:33;100239.44;;;6.71;100.00
9764;BME280;4921;43.214;27.936;2023-01-28T00:12:00;100246.66;;;6.68;100.00
9764;BME280;4921;43.214;27.936;2023-01-28T00:14:27;100250.22;;;6.67;100.00
9764;BME280;4921;43.214;27.936;2023-01-28T00:16:55;100244.66;;;6.71;100.00
9764;BME280;4921;43.214;27.936;2023-01-28T00:19:23;100254.41;;;6.69;100.00
9764;BME280;4921;43.214;27.936;2023-01-28T00:21:50;100257.63;;;6.73;100.00
9764;BME280;4921;43.214;27.936;2023-01-28T00:24:17;100253.53;;;6.81;100.00
9764;BME280;4921;43.214;27.936;2023-01-28T00:26:43;100255.41;;;6.79;100.00
9764;BME280;4921;43.214;27.936;2023-01-28T00:29:10;100247.50;;;6.81;100.00
9764;BME280;4921;43.214;27.936;2023-01-28T00:31:37;100246.84;;;6.77;100.00
9764;BME280;4921;43.214;27.936;2023-01-28T00:34:07;100259.91;;;6.90;100.00
9764;BME280;4921;43.214;27.936;2023-01-28T00:36:34;100251.84;;;6.93;100.00
9764;BME280;4921;43.214;27.936;2023-01-28T00:39:04;100254.59;;;6.79;100.00
9764;BME280;4921;43.214;27.936;2023-01-28T00:41:31;100253.75;;;6.78;100.00
9764;BME280;4921;43.214;27.936;2023-01-28T00:43:58;100261.72;;;6.77;100.00
9764;BME280;4921;43.214;27.936;2023-01-28T00:46:25;100252.06;;;6.77;100.00
9764;BME280;4921;43.214;27.936;2023-01-28T00:48:52;100256.91;;;6.83;100.00
9764;BME280;4921;43.214;27.936;2023-01-28T00:51:21;100259.41;;;6.85;100.00
9764;BME280;4921;43.214;27.936;2023-01-28T00:53:48;100262.22;;;6.82;100.00
9764;BME280;4921;43.214;27.936;2023-01-28T00:56:16;100261.88;;;6.86;100.00
9764;BME280;4921;43.214;27.936;2023-01-28T00:58:44;100258.97;;;6.78;100.00
9764;BME280;4921;43.214;27.936;2023-01-28T01:01:12;100260.34;;;6.71;100.00
9764;BME280;4921;43.214;27.936;2023-01-28T01:03:40;100270.38;;;6.65;100.00
9764;BME280;4921;43.214;27.936;2023-01-28T01:06:08;100267.66;;;6.66;100.00
9764;BME280;4921;43.214;27.936;2023-01-28T01:08:37;100275.09;;;6.60;100.00
9764;BME280;4921;43.214;27.936;2023-01-28T01:11:09;100271.31;;;6.76;100.00
9764;BME280;4921;43.214;27.936;2023-01-28T01:13:36;100275.50;;;6.79;100.00
9764;BME280;4921;43.214;27.936;2023-01-28T01:16:05;100283.31;;;6.66;100.00
9764;BME280;4921;43.214;27.936;2023-01-28T01:18:33;100281.34;;;6.70;100.00
9764;BME280;4921;43.214;27.936;2023-01-28T01:21:00;100281.56;;;6.67;100.00
9764;BME280;4921;43.214;27.936;2023-01-28T01:23:29;100284.91;;;6.56;100.00
9764;BME280;4921;43.214;27.936;2023-01-28T01:25:57;100290.44;;;6.64;100.00
9764;BME280;4921;43.214;27.936;2023-01-28T01:28:25;100293.69;;;6.68;100.00
9764;BME280;4921;43.214;27.936;2023-01-28T01:30:58;100296.94;;;6.59;100.00
9764;BME280;4921;43.214;27.936;2023-01-28T01:33:27;100302.88;;;6.61;100.00
9764;BME280;4921;43.214;27.936;2023-01-28T01:35:54;100306.13;;;6.52;100.00
9764;BME280;4921;43.214;27.936;2023-01-28T01:38:21;100304.53;;;6.49;100.00
9764;BME280;4921;43.214;27.936;2023-01-28T01:40:48;100310.84;;;6.47;100.00
9764;BME280;4921;43.214;27.936;2023-01-28T01:43:17;100319.09;;;6.53;100.00
9764;BME280;4921;43.214;27.936;2023-01-28T01:45:47;100323.47;;;6.53;100.00
9764;BME280;4921;43.214;27.936;2023-01-28T01:48:19;100317.63;;;6.62;100.00
9764;BME280;4921;43.214;27.936;2023-01-28T01:50:51;100329.84;;;6.49;100.00
9764;BME280;4921;43.214;27.936;2023-01-28T01:53:22;100322.63;;;6.40;100.00
9764;BME280;4921;43.214;27.936;2023-01-28T01:55:52;100325.56;;;6.48;100.00
9764;BME280;4921;43.214;27.936;2023-01-28T01:58:26;100329.53;;;6.53;100.00
9764;BME280;4921;43.214;27.936;2023-01-28T02:00:54;100330.16;;;6.44;100.00
9764;BME280;4921;43.214;27.936;2023-01-28T02:03:26;100334.09;;;6.37;100.00
9764;BME280;4921;43.214;27.936;2023-01-28T02:05:54;100342.66;;;6.27;100.00
9764;BME280;4921;43.214;27.936;2023-01-28T02:08:21;100333.97;;;6.26;100.00
9764;BME280;4921;43.214;27.936;2023-01-28T02:10:52;100337.53;;;6.25;100.00
9764;BME280;4921;43.214;27.936;2023-01-28T02:13:24;100346.09;;;6.27;100.00
9764;BME280;4921;43.214;27.936;2023-01-28T02:15:54;100355.41;;;6.31;100.00
9764;BME280;4921;43.214;27.936;2023-01-28T02:18:21;100362.50;;;6.29;100.00
9764;BME280;4921;43.214;27.936;2023-01-28T02:21:25;100350.03;;;6.07;100.00
9764;BME280;4921;43.214;27.936;2023-01-28T02:24:12;100359.13;;;6.14;100.00
9764;BME280;4921;43.214;27.936;2023-01-28T02:26:55;100359.94;;;6.15;100.00
9764;BME280;4921;43.214;27.936;2023-01-28T02:29:34;100361.94;;;6.11;100.00
9764;BME280;4921;43.214;27.936;2023-01-28T02:32:07;100368.81;;;6.12;100.00
9764;BME280;4921;43.214;27.936;2023-01-28T02:34:40;100365.84;;;5.92;100.00
9764;BME280;4921;43.214;27.936;2023-01-28T02:37:13;100377.50;;;5.86;100.00
9764;BME280;4921;43.214;27.936;2023-01-28T02:39:43;100384.94;;;5.92;100.00
9764;BME280;4921;43.214;27.936;2023-01-28T02:42:14;100372.44;;;5.83;100.00
9764;BME280;4921;43.214;27.936;2023-01-28T02:44:44;100391.94;;;5.92;100.00
9764;BME280;4921;43.214;27.936;2023-01-28T02:47:12;100382.72;;;5.86;100.00
9764;BME280;4921;43.214;27.936;2023-01-28T02:49:58;100384.84;;;5.94;100.00
9764;BME280;4921;43.214;27.936;2023-01-28T02:52:36;100389.97;;;5.81;100.00
9764;BME280;4921;43.214;27.936;2023-01-28T02:55:31;100396.69;;;5.85;100.00
9764;BME280;4921;43.214;27.936;2023-01-28T02:58:08;100411.50;;;5.85;100.00
9764;BME280;4921;43.214;27.936;2023-01-28T03:00:45;100394.28;;;5.68;100.00
9764;BME280;4921;43.214;27.936;2023-01-28T03:03:19;100400.19;;;5.58;100.00
9764;BME280;4921;43.214;27.936;2023-01-28T03:05:51;100410.22;;;5.64;100.00
9764;BME280;4921;43.214;27.936;2023-01-28T03:08:35;100405.56;;;5.55;100.00
9764;BME280;4921;43.214;27.936;2023-01-28T03:11:22;100407.94;;;5.45;100.00
9764;BME280;4921;43.214;27.936;2023-01-28T03:14:07;100416.78;;;5.43;100.00
9764;BME280;4921;43.214;27.936;2023-01-28T03:16:56;100422.91;;;5.41;100.00
9764;BME280;4921;43.214;27.936;2023-01-28T03:19:42;100411.09;;;5.22;100.00
9764;BME280;4921;43.214;27.936;2023-01-28T03:22:28;100415.94;;;5.28;100.00
9764;BME280;4921;43.214;27.936;2023-01-28T03:25:17;100419.13;;;5.19;100.00
9764;BME280;4921;43.214;27.936;2023-01-28T03:28:08;100415.09;;;5.13;100.00
9764;BME280;4921;43.214;27.936;2023-01-28T03:30:56;100408.97;;;5.14;100.00
9764;BME280;4921;43.214;27.936;2023-01-28T03:33:46;100415.75;;;5.03;100.00
9764;BME280;4921;43.214;27.936;2023-01-28T03:36:31;100415.66;;;5.04;100.00
9764;BME280;4921;43.214;27.936;2023-01-28T03:39:15;100419.72;;;4.94;100.00
9764;BME280;4921;43.214;27.936;2023-01-28T03:41:42;100422.72;;;4.88;100.00
9764;BME280;4921;43.214;27.936;2023-01-28T03:44:09;100427.28;;;4.85;100.00
9764;BME280;4921;43.214;27.936;2023-01-28T03:46:54;100431.06;;;4.79;100.00
9764;BME280;4921;43.214;27.936;2023-01-28T03:49:22;100439.56;;;4.83;100.00
9764;BME280;4921;43.214;27.936;2023-01-28T03:51:49;100431.00;;;4.95;100.00
9764;BME280;4921;43.214;27.936;2023-01-28T03:54:16;100432.97;;;4.91;100.00
9764;BME280;4921;43.214;27.936;2023-01-28T03:56:43;100454.97;;;4.86;100.00
9764;BME280;4921;43.214;27.936;2023-01-28T03:59:10;100444.34;;;4.75;100.00
9764;BME280;4921;43.214;27.936;2023-01-28T04:01:36;100448.13;;;4.85;100.00
9764;BME280;4921;43.214;27.936;2023-01-28T04:04:04;100442.91;;;4.85;100.00
9764;BME280;4921;43.214;27.936;2023-01-28T04:06:32;100451.16;;;4.77;100.00
9764;BME280;4921;43.214;27.936;2023-01-28T04:08:59;100447.38;;;4.83;100.00
9764;BME280;4921;43.214;27.936;2023-01-28T04:11:26;100466.50;;;4.82;100.00
9764;BME280;4921;43.214;27.936;2023-01-28T04:13:53;100455.09;;;4.84;100.00
9764;BME280;4921;43.214;27.936;2023-01-28T04:16:20;100454.06;;;4.87;100.00
9764;BME280;4921;43.214;27.936;2023-01-28T04:18:47;100459.66;;;4.81;100.00
9764;BME280;4921;43.214;27.936;2023-01-28T04:21:14;100462.78;;;4.72;100.00
9764;BME280;4921;43.214;27.936;2023-01-28T04:23:42;100459.81;;;4.78;100.00
9764;BME280;4921;43.214;27.936;2023-01-28T04:26:09;100457.84;;;4.67;100.00
9764;BME280;4921;43.214;27.936;2023-01-28T04:28:36;100457.72;;;4.69;100.00
9764;BME280;4921;43.214;27.936;2023-01-28T04:31:03;100465.47;;;4.70;100.00
9764;BME280;4921;43.214;27.936;2023-01-28T04:33:30;100467.31;;;4.68;100.00
9764;BME280;4921;43.214;27.936;2023-01-28T04:35:57;100464.38;;;4.74;100.00
9764;BME280;4921;43.214;27.936;2023-01-28T04:38:24;100468.53;;;4.77;100.00
9764;BME280;4921;43.214;27.936;2023-01-28T04:40:53;100468.63;;;4.75;100.00
9764;BME280;4921;43.214;27.936;2023-01-28T04:43:20;100473.41;;;4.83;100.00
9764;BME280;4921;43.214;27.936;2023-01-28T04:45:48;100460.28;;;4.84;100.00
9764;BME280;4921;43.214;27.936;2023-01-28T04:48:15;100472.56;;;4.82;100.00
9764;BME280;4921;43.214;27.936;2023-01-28T04:50:42;100471.34;;;4.74;100.00
9764;BME280;4921;43.214;27.936;2023-01-28T04:53:10;100464.44;;;4.73;100.00
9764;BME280;4921;43.214;27.936;2023-01-28T04:55:37;100456.81;;;4.70;100.00
9764;BME280;4921;43.214;27.936;2023-01-28T04:58:05;100452.56;;;4.53;100.00
9764;BME280;4921;43.214;27.936;2023-01-28T05:00:32;100469.78;;;4.55;100.00
9764;BME280;4921;43.214;27.936;2023-01-28T05:02:59;100461.59;;;4.61;100.00
9764;BME280;4921;43.214;27.936;2023-01-28T05:05:26;100472.00;;;4.47;100.00
9764;BME280;4921;43.214;27.936;2023-01-28T05:07:55;100466.16;;;4.28;100.00
9764;BME280;4921;43.214;27.936;2023-01-28T05:10:22;100488.13;;;4.23;100.00
9764;BME280;4921;43.214;27.936;2023-01-28T05:12:50;100481.66;;;4.30;100.00
9764;BME280;4921;43.214;27.936;2023-01-28T05:15:18;100484.78;;;4.21;100.00
9764;BME280;4921;43.214;27.936;2023-01-28T05:17:45;100498.38;;;4.26;100.00
9764;BME280;4921;43.214;27.936;2023-01-28T05:20:13;100501.34;;;4.20;100.00
9764;BME280;4921;43.214;27.936;2023-01-28T05:22:40;100499.97;;;4.28;100.00
9764;BME280;4921;43.214;27.936;2023-01-28T05:25:08;100496.78;;;4.23;100.00
9764;BME280;4921;43.214;27.936;2023-01-28T05:27:35;100503.94;;;4.35;100.00
9764;BME280;4921;43.214;27.936;2023-01-28T05:30:03;100518.03;;;4.16;100.00
9764;BME280;4921;43.214;27.936;2023-01-28T05:32:32;100511.16;;;4.15;100.00
9764;BME280;4921;43.214;27.936;2023-01-28T05:34:59;100520.13;;;4.09;100.00
9764;BME280;4921;43.214;27.936;2023-01-28T05:37:26;100507.78;;;4.13;100.00
9764;BME280;4921;43.214;27.936;2023-01-28T05:39:53;100540.00;;;4.10;100.00
9764;BME280;4921;43.214;27.936;2023-01-28T05:42:20;100536.59;;;4.10;100.00
9764;BME280;4921;43.214;27.936;2023-01-28T05:44:47;100526.84;;;4.13;100.00
9764;BME280;4921;43.214;27.936;2023-01-28T05:47:14;100538.94;;;3.99;100.00
9764;BME280;4921;43.214;27.936;2023-01-28T05:49:42;100538.94;;;3.99;100.00
9764;BME280;4921;43.214;27.936;2023-01-28T05:52:11;100537.56;;;3.92;100.00
9764;BME280;4921;43.214;27.936;2023-01-28T05:54:37;100543.53;;;3.94;100.00
9764;BME280;4921;43.214;27.936;2023-01-28T05:57:04;100530.75;;;3.89;100.00
9764;BME280;4921;43.214;27.936;2023-01-28T05:59:33;100545.88;;;3.98;100.00
9764;BME280;4921;43.214;27.936;2023-01-28T06:02:00;100557.31;;;4.11;100.00
9764;BME280;4921;43.214;27.936;2023-01-28T06:04:27;100560.16;;;4.07;100.00
9764;BME280;4921;43.214;27.936;2023-01-28T06:06:55;100570.47;;;4.08;100.00
9764;BME280;4921;43.214;27.936;2023-01-28T06:09:22;100571.22;;;4.10;100.00
9764;BME280;4921;43.214;27.936;2023-01-28T06:11:49;100542.94;;;3.88;100.00
9764;BME280;4921;43.214;27.936;2023-01-28T06:14:16;100560.06;;;4.08;100.00
9764;BME280;4921;43.214;27.936;2023-01-28T06:16:43;100575.09;;;4.03;100.00
9764;BME280;4921;43.214;27.936;2023-01-28T06:19:10;100584.66;;;4.03;100.00
9764;BME280;4921;43.214;27.936;2023-01-28T06:21:37;100580.69;;;3.96;100.00
9764;BME280;4921;43.214;27.936;2023-01-28T06:24:05;100578.72;;;4.01;100.00
9764;BME280;4921;43.214;27.936;2023-01-28T06:26:32;100577.09;;;3.98;100.00
9764;BME280;4921;43.214;27.936;2023-01-28T06:28:59;100584.28;;;3.93;100.00
9764;BME280;4921;43.214;27.936;2023-01-28T06:31:26;100583.91;;;4.01;100.00
9764;BME280;4921;43.214;27.936;2023-01-28T06:33:53;100585.25;;;4.08;100.00
9764;BME280;4921;43.214;27.936;2023-01-28T06:36:20;100574.41;;;4.00;100.00
9764;BME280;4921;43.214;27.936;2023-01-28T06:38:47;100601.88;;;4.05;100.00
9764;BME280;4921;43.214;27.936;2023-01-28T06:41:15;100591.66;;;4.18;100.00
9764;BME280;4921;43.214;27.936;2023-01-28T06:43:42;100595.50;;;4.11;100.00
9764;BME280;4921;43.214;27.936;2023-01-28T06:46:09;100618.81;;;4.12;100.00
9764;BME280;4921;43.214;27.936;2023-01-28T06:48:36;100600.56;;;4.14;100.00
9764;BME280;4921;43.214;27.936;2023-01-28T06:51:03;100600.38;;;4.17;100.00
9764;BME280;4921;43.214;27.936;2023-01-28T06:53:30;100614.13;;;4.19;100.00
9764;BME280;4921;43.214;27.936;2023-01-28T06:55:57;100615.06;;;4.18;100.00
9764;BME280;4921;43.214;27.936;2023-01-28T06:58:26;100613.47;;;4.15;100.00
9764;BME280;4921;43.214;27.936;2023-01-28T07:00:53;100616.25;;;4.28;100.00
9764;BME280;4921;43.214;27.936;2023-01-28T07:03:20;100607.53;;;4.29;100.00
9764;BME280;4921;43.214;27.936;2023-01-28T07:05:47;100607.59;;;4.27;100.00
9764;BME280;4921;43.214;27.936;2023-01-28T07:08:14;100614.91;;;4.36;100.00
9764;BME280;4921;43.214;27.936;2023-01-28T07:10:41;100609.22;;;4.45;100.00
9764;BME280;4921;43.214;27.936;2023-01-28T07:13:08;100613.56;;;4.45;100.00
9764;BME280;4921;43.214;27.936;2023-01-28T07:15:37;100619.78;;;4.42;100.00
9764;BME280;4921;43.214;27.936;2023-01-28T07:18:04;100635.75;;;4.52;100.00
9764;BME280;4921;43.214;27.936;2023-01-28T07:20:31;100637.94;;;4.44;100.00
9764;BME280;4921;43.214;27.936;2023-01-28T07:22:58;100634.06;;;4.35;100.00
9764;BME280;4921;43.214;27.936;2023-01-28T07:25:25;100652.03;;;4.55;100.00
9764;BME280;4921;43.214;27.936;2023-01-28T07:27:52;100647.59;;;4.57;100.00
9764;BME280;4921;43.214;27.936;2023-01-28T07:30:20;100661.53;;;4.56;100.00
9764;BME280;4921;43.214;27.936;2023-01-28T07:32:53;100649.44;;;4.55;100.00
9764;BME280;4921;43.214;27.936;2023-01-28T07:35:21;100643.13;;;4.59;100.00
9764;BME280;4921;43.214;27.936;2023-01-28T07:37:52;100645.84;;;4.58;100.00
9764;BME280;4921;43.214;27.936;2023-01-28T07:40:19;100656.50;;;4.69;100.00
9764;BME280;4921;43.214;27.936;2023-01-28T07:42:46;100652.91;;;4.72;100.00
9764;BME280;4921;43.214;27.936;2023-01-28T07:45:14;100655.25;;;4.76;100.00
9764;BME280;4921;43.214;27.936;2023-01-28T07:47:41;100652.47;;;4.79;100.00
9764;BME280;4921;43.214;27.936;2023-01-28T07:50:10;100649.25;;;4.90;100.00
9764;BME280;4921;43.214;27.936;2023-01-28T07:52:37;100656.50;;;4.85;100.00
9764;BME280;4921;43.214;27.936;2023-01-28T07:55:09;100659.44;;;4.94;100.00
9764;BME280;4921;43.214;27.936;2023-01-28T07:57:37;100667.09;;;4.97;100.00
9764;BME280;4921;43.214;27.936;2023-01-28T08:00:04;100667.94;;;4.98;100.00
9764;BME280;4921;43.214;27.936;2023-01-28T08:02:31;100656.81;;;4.94;100.00
9764;BME280;4921;43.214;27.936;2023-01-28T08:04:59;100666.84;;;5.02;100.00
9764;BME280;4921;43.214;27.936;2023-01-28T08:07:30;100663.63;;;5.12;100.00
9764;BME280;4921;43.214;27.936;2023-01-28T08:09:57;100666.72;;;5.19;100.00
9764;BME280;4921;43.214;27.936;2023-01-28T08:12:23;100680.66;;;5.18;100.00
9764;BME280;4921;43.214;27.936;2023-01-28T08:14:50;100674.03;;;5.28;100.00
9764;BME280;4921;43.214;27.936;2023-01-28T08:17:17;100675.88;;;5.26;100.00
9764;BME280;4921;43.214;27.936;2023-01-28T08:19:44;100689.41;;;5.32;100.00
9764;BME280;4921;43.214;27.936;2023-01-28T08:22:11;100703.25;;;5.33;100.00
9764;BME280;4921;43.214;27.936;2023-01-28T08:24:39;100701.25;;;5.22;100.00
9764;BME280;4921;43.214;27.936;2023-01-28T08:27:06;100714.38;;;5.36;100.00
9764;BME280;4921;43.214;27.936;2023-01-28T08:29:33;100718.66;;;5.22;100.00
9764;BME280;4921;43.214;27.936;2023-01-28T08:32:00;100715.66;;;5.14;100.00
9764;BME280;4921;43.214;27.936;2023-01-28T08:34:27;100728.03;;;5.10;100.00
9764;BME280;4921;43.214;27.936;2023-01-28T08:36:54;100732.78;;;5.18;100.00
9764;BME280;4921;43.214;27.936;2023-01-28T08:39:21;100725.47;;;5.24;100.00
9764;BME280;4921;43.214;27.936;2023-01-28T08:41:49;100734.66;;;5.16;100.00
9764;BME280;4921;43.214;27.936;2023-01-28T08:44:16;100729.78;;;5.25;100.00
9764;BME280;4921;43.214;27.936;2023-01-28T08:46:43;100717.00;;;5.21;100.00
9764;BME280;4921;43.214;27.936;2023-01-28T08:49:10;100719.25;;;5.27;100.00
9764;BME280;4921;43.214;27.936;2023-01-28T08:51:37;100716.38;;;5.31;100.00
9764;BME280;4921;43.214;27.936;2023-01-28T08:54:04;100718.59;;;5.39;100.00
9764;BME280;4921;43.214;27.936;2023-01-28T08:56:30;100712.53;;;5.38;100.00
9764;BME280;4921;43.214;27.936;2023-01-28T08:58:59;100729.69;;;5.27;100.00
9764;BME280;4921;43.214;27.936;2023-01-28T09:01:26;100720.00;;;5.29;100.00
9764;BME280;4921;43.214;27.936;2023-01-28T09:03:53;100713.56;;;5.50;100.00
9764;BME280;4921;43.214;27.936;2023-01-28T09:06:20;100708.91;;;5.41;100.00
9764;BME280;4921;43.214;27.936;2023-01-28T09:08:47;100709.41;;;5.32;100.00
9764;BME280;4921;43.214;27.936;2023-01-28T09:11:14;100712.31;;;5.41;100.00
9764;BME280;4921;43.214;27.936;2023-01-28T09:13:41;100718.66;;;5.37;100.00
9764;BME280;4921;43.214;27.936;2023-01-28T09:16:09;100718.78;;;5.50;100.00
9764;BME280;4921;43.214;27.936;2023-01-28T09:18:36;100708.19;;;5.53;100.00
9764;BME280;4921;43.214;27.936;2023-01-28T09:21:04;100715.84;;;5.56;100.00
9764;BME280;4921;43.214;27.936;2023-01-28T09:23:33;100708.91;;;5.41;100.00
9764;BME280;4921;43.214;27.936;2023-01-28T09:26:01;100724.53;;;5.41;100.00
9764;BME280;4921;43.214;27.936;2023-01-28T09:28:28;100725.69;;;5.51;100.00
9764;BME280;4921;43.214;27.936;2023-01-28T09:31:00;100731.25;;;5.45;100.00
9764;BME280;4921;43.214;27.936;2023-01-28T09:33:29;100738.56;;;5.54;100.00
9764;BME280;4921;43.214;27.936;2023-01-28T09:35:58;100734.38;;;5.52;100.00
9764;BME280;4921;43.214;27.936;2023-01-28T09:38:26;100734.84;;;5.58;100.00
9764;BME280;4921;43.214;27.936;2023-01-28T09:40:53;100735.97;;;5.54;100.00
9764;BME280;4921;43.214;27.936;2023-01-28T09:43:34;100743.00;;;5.52;100.00
9764;BME280;4921;43.214;27.936;2023-01-28T09:46:10;100743.78;;;5.54;100.00
9764;BME280;4921;43.214;27.936;2023-01-28T09:48:42;100734.94;;;5.57;100.00
9764;BME280;4921;43.214;27.936;2023-01-28T09:51:21;100737.53;;;5.57;100.00
9764;BME280;4921;43.214;27.936;2023-01-28T09:53:54;100734.09;;;5.56;100.00
9764;BME280;4921;43.214;27.936;2023-01-28T09:56:25;100725.94;;;5.47;100.00
9764;BME280;4921;43.214;27.936;2023-01-28T09:58:56;100732.88;;;5.48;100.00
9764;BME280;4921;43.214;27.936;2023-01-28T10:01:40;100727.16;;;5.41;100.00
9764;BME280;4921;43.214;27.936;2023-01-28T10:04:23;100722.09;;;5.38;100.00
9764;BME280;4921;43.214;27.936;2023-01-28T10:06:58;100731.00;;;5.50;100.00
9764;BME280;4921;43.214;27.936;2023-01-28T10:09:34;100710.91;;;5.52;100.00
9764;BME280;4921;43.214;27.936;2023-01-28T10:12:27;100699.97;;;5.45;100.00
9764;BME280;4921;43.214;27.936;2023-01-28T10:18:01;100694.63;;;5.62;100.00
9764;BME280;4921;43.214;27.936;2023-01-28T10:20:34;100704.06;;;5.79;100.00
9764;BME280;4921;43.214;27.936;2023-01-28T10:23:05;100706.09;;;5.74;100.00
9764;BME280;4921;43.214;27.936;2023-01-28T10:25:34;100701.13;;;5.85;100.00
9764;BME280;4921;43.214;27.936;2023-01-28T10:30:38;100700.13;;;5.87;100.00
9764;BME280;4921;43.214;27.936;2023-01-28T10:35:40;100695.53;;;5.91;100.00
9764;BME280;4921;43.214;27.936;2023-01-28T10:45:42;100715.47;;;5.32;100.00
9764;BME280;4921;43.214;27.936;2023-01-28T10:48:29;100728.06;;;5.40;100.00
9764;BME280;4921;43.214;27.936;2023-01-28T10:51:29;100712.59;;;5.37;100.00
9764;BME280;4921;43.214;27.936;2023-01-28T10:54:03;100720.41;;;5.37;100.00
9764;BME280;4921;43.214;27.936;2023-01-28T10:59:28;100725.63;;;5.37;100.00
9764;BME280;4921;43.214;27.936;2023-01-28T11:02:00;100730.19;;;5.33;100.00
9764;BME280;4921;43.214;27.936;2023-01-28T11:05:00;100733.28;;;5.40;100.00
9764;BME280;4921;43.214;27.936;2023-01-28T11:07:33;100743.16;;;5.19;100.00
9764;BME280;4921;43.214;27.936;2023-01-28T11:10:00;100746.66;;;5.34;100.00
9764;BME280;4921;43.214;27.936;2023-01-28T11:12:29;100733.72;;;5.32;100.00
9764;BME280;4921;43.214;27.936;2023-01-28T11:14:59;100742.47;;;5.31;100.00
9764;BME280;4921;43.214;27.936;2023-01-28T11:17:28;100741.38;;;5.20;100.00
9764;BME280;4921;43.214;27.936;2023-01-28T11:22:35;100751.72;;;5.21;100.00
9764;BME280;4921;43.214;27.936;2023-01-28T11:25:15;100750.13;;;5.19;100.00
9764;BME280;4921;43.214;27.936;2023-01-28T11:27:46;100753.75;;;5.16;100.00
9764;BME280;4921;43.214;27.936;2023-01-28T11:30:21;100751.22;;;5.15;100.00
9764;BME280;4921;43.214;27.936;2023-01-28T11:33:02;100744.31;;;5.14;100.00
9764;BME280;4921;43.214;27.936;2023-01-28T11:35:32;100742.72;;;5.11;100.00
9764;BME280;4921;43.214;27.936;2023-01-28T11:38:00;100741.81;;;5.12;100.00
9764;BME280;4921;43.214;27.936;2023-01-28T11:40:27;100746.06;;;5.13;100.00
9764;BME280;4921;43.214;27.936;2023-01-28T11:42:55;100744.56;;;5.09;100.00
9764;BME280;4921;43.214;27.936;2023-01-28T11:45:29;100747.38;;;5.06;100.00
9764;BME280;4921;43.214;27.936;2023-01-28T11:48:19;100745.66;;;5.21;100.00
9764;BME280;4921;43.214;27.936;2023-01-28T11:50:56;100751.47;;;5.10;100.00
9764;BME280;4921;43.214;27.936;2023-01-28T11:53:45;100761.06;;;5.10;100.00
9764;BME280;4921;43.214;27.936;2023-01-28T11:56:37;100763.41;;;4.99;100.00
9764;BME280;4921;43.214;27.936;2023-01-28T11:59:30;100757.84;;;5.05;100.00
9764;BME280;4921;43.214;27.936;2023-01-28T12:02:14;100772.81;;;5.01;100.00
9764;BME280;4921;43.214;27.936;2023-01-28T12:04:59;100769.09;;;4.90;100.00
9764;BME280;4921;43.214;27.936;2023-01-28T12:07:36;100768.59;;;4.99;100.00
9764;BME280;4921;43.214;27.936;2023-01-28T12:10:17;100785.34;;;4.95;100.00
9764;BME280;4921;43.214;27.936;2023-01-28T12:13:04;100786.00;;;4.98;100.00
9764;BME280;4921;43.214;27.936;2023-01-28T12:16:02;100799.13;;;4.97;100.00
9764;BME280;4921;43.214;27.936;2023-01-28T12:18:51;100781.09;;;4.77;100.00
9764;BME280;4921;43.214;27.936;2023-01-28T12:21:30;100788.03;;;4.93;100.00
9764;BME280;4921;43.214;27.936;2023-01-28T12:24:13;100790.66;;;5.09;100.00
9764;BME280;4921;43.214;27.936;2023-01-28T12:26:49;100788.78;;;4.95;100.00
9764;BME280;4921;43.214;27.936;2023-01-28T12:29:26;100793.88;;;4.81;100.00
9764;BME280;4921;43.214;27.936;2023-01-28T12:32:11;100800.25;;;4.76;100.00
9764;BME280;4921;43.214;27.936;2023-01-28T12:35:16;100791.44;;;4.78;100.00
9764;BME280;4921;43.214;27.936;2023-01-28T12:37:58;100794.25;;;4.91;100.00
9764;BME280;4921;43.214;27.936;2023-01-28T12:40:49;100794.25;;;4.91;100.00
9764;BME280;4921;43.214;27.936;2023-01-28T12:43:23;100794.81;;;4.80;100.00
9764;BME280;4921;43.214;27.936;2023-01-28T12:45:54;100808.03;;;4.60;100.00
9764;BME280;4921;43.214;27.936;2023-01-28T12:48:29;100822.03;;;4.57;100.00
9764;BME280;4921;43.214;27.936;2023-01-28T12:51:02;100817.13;;;4.69;100.00
9764;BME280;4921;43.214;27.936;2023-01-28T12:53:36;100816.28;;;4.68;100.00
9764;BME280;4921;43.214;27.936;2023-01-28T12:56:09;100809.97;;;4.56;100.00
9764;BME280;4921;43.214;27.936;2023-01-28T12:58:45;100841.78;;;4.79;100.00
9764;BME280;4921;43.214;27.936;2023-01-28T13:01:17;100834.88;;;4.78;100.00
9764;BME280;4921;43.214;27.936;2023-01-28T13:03:50;100845.00;;;4.67;100.00
9764;BME280;4921;43.214;27.936;2023-01-28T13:06:24;100839.72;;;4.68;100.00
9764;BME280;4921;43.214;27.936;2023-01-28T13:08:57;100842.31;;;4.68;100.00
9764;BME280;4921;43.214;27.936;2023-01-28T13:11:31;100847.72;;;4.65;100.00
9764;BME280;4921;43.214;27.936;2023-01-28T13:14:00;100854.81;;;4.79;100.00
9764;BME280;4921;43.214;27.936;2023-01-28T13:16:28;100868.13;;;4.73;100.00
9764;BME280;4921;43.214;27.936;2023-01-28T13:19:05;100850.47;;;4.45;100.00
9764;BME280;4921;43.214;27.936;2023-01-28T13:21:34;100876.25;;;4.67;100.00
9764;BME280;4921;43.214;27.936;2023-01-28T13:24:18;100866.03;;;4.63;100.00
9764;BME280;4921;43.214;27.936;2023-01-28T13:26:47;100872.75;;;4.68;100.00
9764;BME280;4921;43.214;27.936;2023-01-28T13:29:30;100882.31;;;4.67;100.00
9764;BME280;4921;43.214;27.936;2023-01-28T13:31:59;100887.84;;;4.61;100.00
9764;BME280;4921;43.214;27.936;2023-01-28T13:34:33;100884.50;;;4.59;100.00
9764;BME280;4921;43.214;27.936;2023-01-28T13:37:04;100895.97;;;4.72;100.00
9764;BME280;4921;43.214;27.936;2023-01-28T13:39:34;100893.13;;;4.59;100.00
9764;BME280;4921;43.214;27.936;2023-01-28T13:42:18;100907.75;;;4.62;100.00
9764;BME280;4921;43.214;27.936;2023-01-28T13:44:48;100887.00;;;4.43;100.00